sensor_id;sensor_type;location;lat;lon;timestamp;P1;durP1;ratioP1;P2;durP2;ratioP2
42244;SDS011;27912;51.828;5.688;2022-12-18T00:01:26;84.80;;;25.83;;
42244;SDS011;27912;51.828;5.688;2022-12-18T00:03:54;83.63;;;26.95;;
42244;SDS011;27912;51.828;5.688;2022-12-18T00:06:20;86.93;;;27.52;;
42244;SDS011;27912;51.828;5.688;2022-12-18T00:08:47;86.10;;;25.42;;
42244;SDS011;27912;51.828;5.688;2022-12-18T00:11:14;79.93;;;27.58;;
42244;SDS011;27912;51.828;5.688;2022-12-18T00:13:45;76.20;;;25.03;;
42244;SDS011;27912;51.828;5.688;2022-12-18T00:16:12;86.50;;;27.25;;
42244;SDS011;27912;51.828;5.688;2022-12-18T00:18:39;76.05;;;23.27;;
42244;SDS011;27912;51.828;5.688;2022-12-18T00:21:06;72.20;;;24.73;;
42244;SDS011;27912;51.828;5.688;2022-12-18T00:23:34;80.63;;;26.20;;
42244;SDS011;27912;51.828;5.688;2022-12-18T00:26:00;77.13;;;22.92;;
42244;SDS011;27912;51.828;5.688;2022-12-18T00:28:27;77.78;;;25.38;;
42244;SDS011;27912;51.828;5.688;2022-12-18T00:31:12;80.47;;;26.10;;
42244;SDS011;27912;51.828;5.688;2022-12-18T00:33:40;81.25;;;25.05;;
42244;SDS011;27912;51.828;5.688;2022-12-18T00:36:15;86.47;;;28.35;;
42244;SDS011;27912;51.828;5.688;2022-12-18T00:38:46;84.80;;;27.65;;
42244;SDS011;27912;51.828;5.688;2022-12-18T00:41:13;95.70;;;28.80;;
42244;SDS011;27912;51.828;5.688;2022-12-18T00:43:59;91.65;;;29.63;;
42244;SDS011;27912;51.828;5.688;2022-12-18T00:46:25;90.30;;;27.33;;
42244;SDS011;27912;51.828;5.688;2022-12-18T00:48:51;76.00;;;28.75;;
42244;SDS011;27912;51.828;5.688;2022-12-18T00:51:16;87.50;;;28.00;;
42244;SDS011;27912;51.828;5.688;2022-12-18T00:53:42;74.60;;;26.45;;
42244;SDS011;27912;51.828;5.688;2022-12-18T00:56:07;77.82;;;28.77;;
42244;SDS011;27912;51.828;5.688;2022-12-18T00:58:33;80.18;;;26.90;;
42244;SDS011;27912;51.828;5.688;2022-12-18T01:00:59;77.32;;;26.55;;
42244;SDS011;27912;51.828;5.688;2022-12-18T01:03:25;85.18;;;28.15;;
42244;SDS011;27912;51.828;5.688;2022-12-18T01:05:50;71.22;;;26.48;;
42244;SDS011;27912;51.828;5.688;2022-12-18T01:08:16;77.20;;;27.48;;
42244;SDS011;27912;51.828;5.688;2022-12-18T01:10:41;79.18;;;27.80;;
42244;SDS011;27912;51.828;5.688;2022-12-18T01:13:07;71.65;;;25.50;;
42244;SDS011;27912;51.828;5.688;2022-12-18T01:15:33;73.18;;;25.75;;
42244;SDS011;27912;51.828;5.688;2022-12-18T01:17:58;75.00;;;26.30;;
42244;SDS011;27912;51.828;5.688;2022-12-18T01:20:24;70.10;;;24.63;;
42244;SDS011;27912;51.828;5.688;2022-12-18T01:22:49;69.78;;;26.55;;
42244;SDS011;27912;51.828;5.688;2022-12-18T01:25:15;69.60;;;27.30;;
42244;SDS011;27912;51.828;5.688;2022-12-18T01:27:41;63.00;;;22.75;;
42244;SDS011;27912;51.828;5.688;2022-12-18T01:30:07;67.60;;;23.75;;
42244;SDS011;27912;51.828;5.688;2022-12-18T01:32:33;63.38;;;22.65;;
42244;SDS011;27912;51.828;5.688;2022-12-18T01:34:58;59.92;;;23.67;;
42244;SDS011;27912;51.828;5.688;2022-12-18T01:37:24;63.42;;;24.88;;
42244;SDS011;27912;51.828;5.688;2022-12-18T01:39:49;64.57;;;25.00;;
42244;SDS011;27912;51.828;5.688;2022-12-18T01:42:17;61.85;;;24.17;;
42244;SDS011;27912;51.828;5.688;2022-12-18T01:50:10;56.58;;;21.25;;
42244;SDS011;27912;51.828;5.688;2022-12-18T01:52:50;60.63;;;23.83;;
42244;SDS011;27912;51.828;5.688;2022-12-18T01:55:29;66.85;;;22.10;;
42244;SDS011;27912;51.828;5.688;2022-12-18T01:58:00;53.15;;;20.70;;
42244;SDS011;27912;51.828;5.688;2022-12-18T02:00:26;56.47;;;22.58;;
42244;SDS011;27912;51.828;5.688;2022-12-18T02:02:53;53.67;;;20.25;;
42244;SDS011;27912;51.828;5.688;2022-12-18T02:05:21;60.28;;;21.27;;
42244;SDS011;27912;51.828;5.688;2022-12-18T02:08:07;58.17;;;21.25;;
42244;SDS011;27912;51.828;5.688;2022-12-18T02:10:56;51.55;;;20.70;;
42244;SDS011;27912;51.828;5.688;2022-12-18T02:13:32;51.22;;;20.67;;
42244;SDS011;27912;51.828;5.688;2022-12-18T02:18:57;50.70;;;20.10;;
42244;SDS011;27912;51.828;5.688;2022-12-18T02:21:31;48.40;;;21.15;;
42244;SDS011;27912;51.828;5.688;2022-12-18T02:24:37;50.72;;;18.70;;
42244;SDS011;27912;51.828;5.688;2022-12-18T02:27:14;35.03;;;14.77;;
42244;SDS011;27912;51.828;5.688;2022-12-18T02:29:44;49.25;;;19.75;;
42244;SDS011;27912;51.828;5.688;2022-12-18T02:32:20;48.58;;;18.77;;
42244;SDS011;27912;51.828;5.688;2022-12-18T02:34:50;48.17;;;19.30;;
42244;SDS011;27912;51.828;5.688;2022-12-18T02:37:17;43.38;;;19.05;;
42244;SDS011;27912;51.828;5.688;2022-12-18T02:39:45;45.50;;;17.85;;
42244;SDS011;27912;51.828;5.688;2022-12-18T02:42:13;56.17;;;20.00;;
42244;SDS011;27912;51.828;5.688;2022-12-18T02:44:46;43.55;;;18.90;;
42244;SDS011;27912;51.828;5.688;2022-12-18T02:47:13;47.72;;;18.23;;
42244;SDS011;27912;51.828;5.688;2022-12-18T02:49:58;46.28;;;17.70;;
42244;SDS011;27912;51.828;5.688;2022-12-18T03:03:19;45.63;;;17.75;;
42244;SDS011;27912;51.828;5.688;2022-12-18T03:06:10;43.08;;;17.52;;
42244;SDS011;27912;51.828;5.688;2022-12-18T03:08:48;40.80;;;16.42;;
42244;SDS011;27912;51.828;5.688;2022-12-18T03:11:19;48.08;;;19.25;;
42244;SDS011;27912;51.828;5.688;2022-12-18T03:14:04;44.20;;;17.27;;
42244;SDS011;27912;51.828;5.688;2022-12-18T03:16:32;41.03;;;17.50;;
42244;SDS011;27912;51.828;5.688;2022-12-18T03:19:05;44.00;;;17.98;;
42244;SDS011;27912;51.828;5.688;2022-12-18T03:21:37;46.75;;;17.85;;
42244;SDS011;27912;51.828;5.688;2022-12-18T03:24:07;34.92;;;13.77;;
42244;SDS011;27912;51.828;5.688;2022-12-18T03:26:34;38.25;;;16.77;;
42244;SDS011;27912;51.828;5.688;2022-12-18T03:29:03;43.63;;;17.67;;
42244;SDS011;27912;51.828;5.688;2022-12-18T03:31:33;42.75;;;17.02;;
42244;SDS011;27912;51.828;5.688;2022-12-18T03:34:01;41.33;;;17.05;;
42244;SDS011;27912;51.828;5.688;2022-12-18T03:36:30;40.85;;;17.10;;
42244;SDS011;27912;51.828;5.688;2022-12-18T03:38:56;42.95;;;17.13;;
42244;SDS011;27912;51.828;5.688;2022-12-18T03:49:10;39.95;;;16.33;;
42244;SDS011;27912;51.828;5.688;2022-12-18T03:51:50;36.80;;;15.90;;
42244;SDS011;27912;51.828;5.688;2022-12-18T03:54:19;36.92;;;15.60;;
42244;SDS011;27912;51.828;5.688;2022-12-18T03:56:47;37.63;;;15.30;;
42244;SDS011;27912;51.828;5.688;2022-12-18T03:59:18;40.70;;;16.35;;
42244;SDS011;27912;51.828;5.688;2022-12-18T04:01:48;38.25;;;17.27;;
42244;SDS011;27912;51.828;5.688;2022-12-18T04:04:16;37.55;;;15.32;;
42244;SDS011;27912;51.828;5.688;2022-12-18T04:06:43;37.67;;;16.27;;
42244;SDS011;27912;51.828;5.688;2022-12-18T04:09:11;33.72;;;15.32;;
42244;SDS011;27912;51.828;5.688;2022-12-18T04:11:39;37.00;;;15.02;;
42244;SDS011;27912;51.828;5.688;2022-12-18T04:14:05;40.05;;;15.77;;
42244;SDS011;27912;51.828;5.688;2022-12-18T04:16:31;34.50;;;14.77;;
42244;SDS011;27912;51.828;5.688;2022-12-18T04:18:56;35.42;;;14.75;;
42244;SDS011;27912;51.828;5.688;2022-12-18T04:21:22;42.13;;;15.10;;
42244;SDS011;27912;51.828;5.688;2022-12-18T04:23:48;34.55;;;14.20;;
42244;SDS011;27912;51.828;5.688;2022-12-18T04:26:13;34.53;;;15.20;;
42244;SDS011;27912;51.828;5.688;2022-12-18T04:28:39;30.42;;;14.60;;
42244;SDS011;27912;51.828;5.688;2022-12-18T04:31:05;33.97;;;14.30;;
42244;SDS011;27912;51.828;5.688;2022-12-18T04:33:30;37.35;;;15.68;;
42244;SDS011;27912;51.828;5.688;2022-12-18T04:35:56;32.50;;;13.20;;
42244;SDS011;27912;51.828;5.688;2022-12-18T04:38:21;35.72;;;14.30;;
42244;SDS011;27912;51.828;5.688;2022-12-18T04:40:47;33.88;;;13.02;;
42244;SDS011;27912;51.828;5.688;2022-12-18T04:43:13;35.50;;;14.40;;
42244;SDS011;27912;51.828;5.688;2022-12-18T04:45:38;30.08;;;13.60;;
42244;SDS011;27912;51.828;5.688;2022-12-18T04:48:04;32.38;;;13.93;;
42244;SDS011;27912;51.828;5.688;2022-12-18T04:50:30;24.85;;;12.43;;
42244;SDS011;27912;51.828;5.688;2022-12-18T04:52:56;33.67;;;12.25;;
42244;SDS011;27912;51.828;5.688;2022-12-18T04:55:22;34.20;;;14.90;;
42244;SDS011;27912;51.828;5.688;2022-12-18T04:57:51;30.40;;;12.93;;
42244;SDS011;27912;51.828;5.688;2022-12-18T05:00:16;28.02;;;12.63;;
42244;SDS011;27912;51.828;5.688;2022-12-18T05:02:42;31.08;;;12.45;;
42244;SDS011;27912;51.828;5.688;2022-12-18T05:05:07;27.13;;;12.63;;
42244;SDS011;27912;51.828;5.688;2022-12-18T05:07:33;28.95;;;13.57;;
42244;SDS011;27912;51.828;5.688;2022-12-18T05:09:59;34.33;;;13.93;;
42244;SDS011;27912;51.828;5.688;2022-12-18T05:12:25;32.67;;;13.25;;
42244;SDS011;27912;51.828;5.688;2022-12-18T05:14:50;32.13;;;13.20;;
42244;SDS011;27912;51.828;5.688;2022-12-18T05:17:16;31.52;;;13.38;;
42244;SDS011;27912;51.828;5.688;2022-12-18T05:19:41;30.65;;;12.02;;
42244;SDS011;27912;51.828;5.688;2022-12-18T05:22:07;31.33;;;13.60;;
42244;SDS011;27912;51.828;5.688;2022-12-18T05:24:33;31.40;;;13.27;;
42244;SDS011;27912;51.828;5.688;2022-12-18T05:26:58;31.35;;;12.55;;
42244;SDS011;27912;51.828;5.688;2022-12-18T05:29:24;35.28;;;14.25;;
42244;SDS011;27912;51.828;5.688;2022-12-18T05:31:50;36.55;;;14.00;;
42244;SDS011;27912;51.828;5.688;2022-12-18T05:34:15;27.60;;;12.25;;
42244;SDS011;27912;51.828;5.688;2022-12-18T05:36:41;38.80;;;13.15;;
42244;SDS011;27912;51.828;5.688;2022-12-18T05:39:07;30.02;;;13.05;;
42244;SDS011;27912;51.828;5.688;2022-12-18T05:41:33;27.70;;;12.35;;
42244;SDS011;27912;51.828;5.688;2022-12-18T05:43:58;36.50;;;14.48;;
42244;SDS011;27912;51.828;5.688;2022-12-18T05:46:24;29.05;;;13.02;;
42244;SDS011;27912;51.828;5.688;2022-12-18T05:48:50;31.73;;;14.05;;
42244;SDS011;27912;51.828;5.688;2022-12-18T05:51:17;33.15;;;13.82;;
42244;SDS011;27912;51.828;5.688;2022-12-18T05:53:44;31.10;;;14.32;;
42244;SDS011;27912;51.828;5.688;2022-12-18T05:56:11;34.47;;;13.57;;
42244;SDS011;27912;51.828;5.688;2022-12-18T05:58:41;37.00;;;14.98;;
42244;SDS011;27912;51.828;5.688;2022-12-18T06:03:40;32.95;;;14.48;;
42244;SDS011;27912;51.828;5.688;2022-12-18T06:06:16;35.05;;;14.68;;
42244;SDS011;27912;51.828;5.688;2022-12-18T06:08:43;31.42;;;14.43;;
42244;SDS011;27912;51.828;5.688;2022-12-18T06:11:09;29.15;;;12.80;;
42244;SDS011;27912;51.828;5.688;2022-12-18T06:13:35;32.88;;;14.35;;
42244;SDS011;27912;51.828;5.688;2022-12-18T06:16:01;31.48;;;13.02;;
42244;SDS011;27912;51.828;5.688;2022-12-18T06:18:30;30.80;;;14.18;;
42244;SDS011;27912;51.828;5.688;2022-12-18T06:20:57;34.38;;;13.38;;
42244;SDS011;27912;51.828;5.688;2022-12-18T06:23:23;33.33;;;13.95;;
42244;SDS011;27912;51.828;5.688;2022-12-18T06:25:49;28.00;;;12.80;;
42244;SDS011;27912;51.828;5.688;2022-12-18T06:28:15;36.28;;;14.20;;
42244;SDS011;27912;51.828;5.688;2022-12-18T06:30:44;30.48;;;12.43;;
42244;SDS011;27912;51.828;5.688;2022-12-18T06:33:10;22.55;;;10.77;;
42244;SDS011;27912;51.828;5.688;2022-12-18T06:35:36;37.00;;;15.45;;
42244;SDS011;27912;51.828;5.688;2022-12-18T06:38:02;32.30;;;13.13;;
42244;SDS011;27912;51.828;5.688;2022-12-18T06:40:28;31.52;;;13.88;;
42244;SDS011;27912;51.828;5.688;2022-12-18T06:42:54;27.90;;;12.95;;
42244;SDS011;27912;51.828;5.688;2022-12-18T06:45:19;32.22;;;14.13;;
42244;SDS011;27912;51.828;5.688;2022-12-18T06:47:45;31.13;;;14.40;;
42244;SDS011;27912;51.828;5.688;2022-12-18T06:50:11;31.23;;;13.77;;
42244;SDS011;27912;51.828;5.688;2022-12-18T06:52:37;27.88;;;12.45;;
42244;SDS011;27912;51.828;5.688;2022-12-18T06:55:04;28.40;;;13.05;;
42244;SDS011;27912;51.828;5.688;2022-12-18T06:57:30;30.85;;;13.95;;
42244;SDS011;27912;51.828;5.688;2022-12-18T06:59:55;31.98;;;13.10;;
42244;SDS011;27912;51.828;5.688;2022-12-18T07:02:21;30.02;;;13.02;;
42244;SDS011;27912;51.828;5.688;2022-12-18T07:04:46;25.55;;;12.13;;
42244;SDS011;27912;51.828;5.688;2022-12-18T07:07:12;36.47;;;14.00;;
42244;SDS011;27912;51.828;5.688;2022-12-18T07:09:37;29.73;;;14.25;;
42244;SDS011;27912;51.828;5.688;2022-12-18T07:12:03;30.02;;;11.23;;
42244;SDS011;27912;51.828;5.688;2022-12-18T07:14:29;28.98;;;14.30;;
42244;SDS011;27912;51.828;5.688;2022-12-18T07:16:55;30.23;;;13.68;;
42244;SDS011;27912;51.828;5.688;2022-12-18T07:19:20;31.33;;;13.95;;
42244;SDS011;27912;51.828;5.688;2022-12-18T07:21:49;32.97;;;13.38;;
42244;SDS011;27912;51.828;5.688;2022-12-18T07:24:15;28.65;;;13.13;;
42244;SDS011;27912;51.828;5.688;2022-12-18T07:26:41;27.25;;;12.63;;
42244;SDS011;27912;51.828;5.688;2022-12-18T07:29:07;30.05;;;13.55;;
42244;SDS011;27912;51.828;5.688;2022-12-18T07:31:33;26.67;;;13.32;;
42244;SDS011;27912;51.828;5.688;2022-12-18T07:33:58;22.80;;;10.95;;
42244;SDS011;27912;51.828;5.688;2022-12-18T07:36:24;27.60;;;12.30;;
42244;SDS011;27912;51.828;5.688;2022-12-18T07:38:50;27.27;;;12.90;;
42244;SDS011;27912;51.828;5.688;2022-12-18T07:41:17;28.95;;;12.65;;
42244;SDS011;27912;51.828;5.688;2022-12-18T07:43:43;31.08;;;14.85;;
42244;SDS011;27912;51.828;5.688;2022-12-18T07:46:10;31.35;;;14.80;;
42244;SDS011;27912;51.828;5.688;2022-12-18T07:48:38;27.38;;;12.82;;
42244;SDS011;27912;51.828;5.688;2022-12-18T07:51:08;28.30;;;12.55;;
42244;SDS011;27912;51.828;5.688;2022-12-18T07:53:34;25.73;;;11.68;;
42244;SDS011;27912;51.828;5.688;2022-12-18T07:56:02;26.48;;;11.82;;
42244;SDS011;27912;51.828;5.688;2022-12-18T07:58:30;30.00;;;13.05;;
42244;SDS011;27912;51.828;5.688;2022-12-18T08:01:11;26.73;;;13.68;;
42244;SDS011;27912;51.828;5.688;2022-12-18T08:03:37;28.38;;;13.38;;
42244;SDS011;27912;51.828;5.688;2022-12-18T08:06:05;24.83;;;12.52;;
42244;SDS011;27912;51.828;5.688;2022-12-18T08:08:32;26.92;;;12.90;;
42244;SDS011;27912;51.828;5.688;2022-12-18T08:10:58;26.70;;;13.15;;
42244;SDS011;27912;51.828;5.688;2022-12-18T08:13:25;29.60;;;13.20;;
42244;SDS011;27912;51.828;5.688;2022-12-18T08:15:57;27.88;;;13.20;;
42244;SDS011;27912;51.828;5.688;2022-12-18T08:18:24;31.10;;;13.75;;
42244;SDS011;27912;51.828;5.688;2022-12-18T08:20:50;27.10;;;12.65;;
42244;SDS011;27912;51.828;5.688;2022-12-18T08:23:16;27.33;;;13.82;;
42244;SDS011;27912;51.828;5.688;2022-12-18T08:25:41;27.25;;;12.07;;
42244;SDS011;27912;51.828;5.688;2022-12-18T08:28:07;28.10;;;12.85;;
42244;SDS011;27912;51.828;5.688;2022-12-18T08:30:32;25.73;;;12.40;;
42244;SDS011;27912;51.828;5.688;2022-12-18T08:32:58;29.13;;;13.25;;
42244;SDS011;27912;51.828;5.688;2022-12-18T08:35:23;26.75;;;12.80;;
42244;SDS011;27912;51.828;5.688;2022-12-18T08:37:49;32.63;;;14.20;;
42244;SDS011;27912;51.828;5.688;2022-12-18T08:40:16;28.15;;;13.57;;
42244;SDS011;27912;51.828;5.688;2022-12-18T08:42:41;27.02;;;12.25;;
42244;SDS011;27912;51.828;5.688;2022-12-18T08:45:25;30.98;;;13.52;;
42244;SDS011;27912;51.828;5.688;2022-12-18T08:47:51;30.00;;;14.25;;
42244;SDS011;27912;51.828;5.688;2022-12-18T08:50:17;25.48;;;12.30;;
42244;SDS011;27912;51.828;5.688;2022-12-18T08:52:43;28.10;;;12.15;;
42244;SDS011;27912;51.828;5.688;2022-12-18T08:55:08;31.77;;;14.30;;
42244;SDS011;27912;51.828;5.688;2022-12-18T08:57:34;24.23;;;12.57;;
42244;SDS011;27912;51.828;5.688;2022-12-18T09:00:00;26.75;;;12.43;;
42244;SDS011;27912;51.828;5.688;2022-12-18T09:02:25;27.25;;;12.82;;
42244;SDS011;27912;51.828;5.688;2022-12-18T09:04:51;27.75;;;12.65;;
42244;SDS011;27912;51.828;5.688;2022-12-18T09:07:16;23.35;;;11.18;;
42244;SDS011;27912;51.828;5.688;2022-12-18T09:09:42;30.40;;;13.65;;
42244;SDS011;27912;51.828;5.688;2022-12-18T09:12:07;25.23;;;12.00;;
42244;SDS011;27912;51.828;5.688;2022-12-18T09:14:33;26.98;;;12.45;;
42244;SDS011;27912;51.828;5.688;2022-12-18T09:16:59;26.65;;;12.45;;
42244;SDS011;27912;51.828;5.688;2022-12-18T09:19:24;27.00;;;13.32;;
42244;SDS011;27912;51.828;5.688;2022-12-18T09:21:50;25.90;;;12.40;;
42244;SDS011;27912;51.828;5.688;2022-12-18T09:24:16;29.75;;;12.48;;
42244;SDS011;27912;51.828;5.688;2022-12-18T09:26:42;26.08;;;12.93;;
42244;SDS011;27912;51.828;5.688;2022-12-18T09:29:08;28.15;;;12.57;;
42244;SDS011;27912;51.828;5.688;2022-12-18T09:31:34;29.08;;;13.15;;
42244;SDS011;27912;51.828;5.688;2022-12-18T09:34:00;26.15;;;12.68;;
42244;SDS011;27912;51.828;5.688;2022-12-18T09:36:26;27.70;;;12.40;;
42244;SDS011;27912;51.828;5.688;2022-12-18T09:38:52;23.27;;;11.55;;
42244;SDS011;27912;51.828;5.688;2022-12-18T09:47:18;23.08;;;11.02;;
42244;SDS011;27912;51.828;5.688;2022-12-18T09:49:49;21.92;;;10.90;;
42244;SDS011;27912;51.828;5.688;2022-12-18T09:55:06;28.70;;;12.52;;
42244;SDS011;27912;51.828;5.688;2022-12-18T09:57:50;26.20;;;12.43;;
42244;SDS011;27912;51.828;5.688;2022-12-18T10:00:22;27.75;;;11.65;;
42244;SDS011;27912;51.828;5.688;2022-12-18T10:02:49;23.42;;;12.05;;
42244;SDS011;27912;51.828;5.688;2022-12-18T10:05:38;25.23;;;11.70;;
42244;SDS011;27912;51.828;5.688;2022-12-18T10:11:16;29.20;;;12.85;;
42244;SDS011;27912;51.828;5.688;2022-12-18T10:14:09;22.17;;;11.48;;
42244;SDS011;27912;51.828;5.688;2022-12-18T10:25:28;25.05;;;11.98;;
42244;SDS011;27912;51.828;5.688;2022-12-18T10:28:12;27.95;;;11.48;;
42244;SDS011;27912;51.828;5.688;2022-12-18T10:30:40;23.88;;;11.20;;
42244;SDS011;27912;51.828;5.688;2022-12-18T10:33:11;25.70;;;11.65;;
42244;SDS011;27912;51.828;5.688;2022-12-18T10:35:41;21.27;;;10.57;;
42244;SDS011;27912;51.828;5.688;2022-12-18T10:41:05;26.05;;;11.43;;
42244;SDS011;27912;51.828;5.688;2022-12-18T10:44:10;21.67;;;10.10;;
42244;SDS011;27912;51.828;5.688;2022-12-18T10:46:49;21.67;;;10.82;;
42244;SDS011;27912;51.828;5.688;2022-12-18T10:49:27;23.08;;;11.60;;
42244;SDS011;27912;51.828;5.688;2022-12-18T10:54:46;25.88;;;11.80;;
42244;SDS011;27912;51.828;5.688;2022-12-18T10:59:56;21.48;;;10.95;;
42244;SDS011;27912;51.828;5.688;2022-12-18T11:02:25;23.73;;;11.25;;
42244;SDS011;27912;51.828;5.688;2022-12-18T11:04:51;23.52;;;11.75;;
42244;SDS011;27912;51.828;5.688;2022-12-18T11:07:17;20.55;;;12.18;;
42244;SDS011;27912;51.828;5.688;2022-12-18T11:09:43;22.50;;;11.50;;
42244;SDS011;27912;51.828;5.688;2022-12-18T11:12:23;26.77;;;12.50;;
42244;SDS011;27912;51.828;5.688;2022-12-18T11:14:50;26.20;;;11.93;;
42244;SDS011;27912;51.828;5.688;2022-12-18T11:17:21;20.00;;;10.55;;
42244;SDS011;27912;51.828;5.688;2022-12-18T11:19:56;23.10;;;11.00;;
42244;SDS011;27912;51.828;5.688;2022-12-18T11:22:26;23.98;;;11.13;;
42244;SDS011;27912;51.828;5.688;2022-12-18T11:24:55;27.15;;;12.65;;
42244;SDS011;27912;51.828;5.688;2022-12-18T11:27:23;22.25;;;11.13;;
42244;SDS011;27912;51.828;5.688;2022-12-18T11:29:50;24.33;;;11.65;;
42244;SDS011;27912;51.828;5.688;2022-12-18T11:32:24;26.08;;;12.57;;
42244;SDS011;27912;51.828;5.688;2022-12-18T11:38:17;23.70;;;11.43;;
42244;SDS011;27912;51.828;5.688;2022-12-18T11:43:50;26.33;;;12.23;;
42244;SDS011;27912;51.828;5.688;2022-12-18T11:54:32;24.05;;;11.50;;
42244;SDS011;27912;51.828;5.688;2022-12-18T11:57:00;23.10;;;11.23;;
42244;SDS011;27912;51.828;5.688;2022-12-18T11:59:51;24.10;;;12.15;;
42244;SDS011;27912;51.828;5.688;2022-12-18T12:16:43;22.23;;;10.95;;
42244;SDS011;27912;51.828;5.688;2022-12-18T12:21:53;22.10;;;11.10;;
42244;SDS011;27912;51.828;5.688;2022-12-18T12:30:03;23.35;;;10.80;;
42244;SDS011;27912;51.828;5.688;2022-12-18T12:32:36;21.98;;;10.63;;
42244;SDS011;27912;51.828;5.688;2022-12-18T12:35:16;28.27;;;12.82;;
42244;SDS011;27912;51.828;5.688;2022-12-18T12:38:08;21.05;;;10.20;;
42244;SDS011;27912;51.828;5.688;2022-12-18T12:40:49;25.30;;;13.15;;
42244;SDS011;27912;51.828;5.688;2022-12-18T12:46:07;25.60;;;11.77;;
42244;SDS011;27912;51.828;5.688;2022-12-18T12:48:46;24.48;;;11.15;;
42244;SDS011;27912;51.828;5.688;2022-12-18T12:51:34;22.90;;;11.63;;
42244;SDS011;27912;51.828;5.688;2022-12-18T12:54:03;22.83;;;12.18;;
42244;SDS011;27912;51.828;5.688;2022-12-18T12:59:15;24.40;;;11.82;;
42244;SDS011;27912;51.828;5.688;2022-12-18T13:02:06;24.42;;;12.27;;
42244;SDS011;27912;51.828;5.688;2022-12-18T13:07:41;23.00;;;12.27;;
42244;SDS011;27912;51.828;5.688;2022-12-18T13:10:34;25.73;;;12.27;;
42244;SDS011;27912;51.828;5.688;2022-12-18T13:13:11;24.50;;;10.98;;
42244;SDS011;27912;51.828;5.688;2022-12-18T13:20:37;22.98;;;11.88;;
42244;SDS011;27912;51.828;5.688;2022-12-18T13:31:01;25.40;;;13.30;;
42244;SDS011;27912;51.828;5.688;2022-12-18T13:35:55;24.23;;;11.93;;
42244;SDS011;27912;51.828;5.688;2022-12-18T13:38:35;24.73;;;12.60;;
42244;SDS011;27912;51.828;5.688;2022-12-18T13:41:04;24.60;;;11.43;;
42244;SDS011;27912;51.828;5.688;2022-12-18T13:44:10;23.70;;;12.07;;
42244;SDS011;27912;51.828;5.688;2022-12-18T13:46:50;23.02;;;11.13;;
42244;SDS011;27912;51.828;5.688;2022-12-18T13:49:25;20.42;;;10.75;;
42244;SDS011;27912;51.828;5.688;2022-12-18T13:51:56;23.02;;;11.00;;
42244;SDS011;27912;51.828;5.688;2022-12-18T13:54:39;23.67;;;12.43;;
42244;SDS011;27912;51.828;5.688;2022-12-18T13:57:23;22.83;;;10.85;;
42244;SDS011;27912;51.828;5.688;2022-12-18T13:59:54;28.77;;;12.93;;
42244;SDS011;27912;51.828;5.688;2022-12-18T14:02:22;22.63;;;11.05;;
42244;SDS011;27912;51.828;5.688;2022-12-18T14:04:53;27.03;;;13.43;;
42244;SDS011;27912;51.828;5.688;2022-12-18T14:07:21;25.52;;;12.95;;
42244;SDS011;27912;51.828;5.688;2022-12-18T14:09:49;26.75;;;12.60;;
42244;SDS011;27912;51.828;5.688;2022-12-18T14:12:30;23.27;;;11.80;;
42244;SDS011;27912;51.828;5.688;2022-12-18T14:17:51;25.67;;;12.48;;
42244;SDS011;27912;51.828;5.688;2022-12-18T14:20:22;25.60;;;13.07;;
42244;SDS011;27912;51.828;5.688;2022-12-18T14:22:49;23.27;;;11.90;;
42244;SDS011;27912;51.828;5.688;2022-12-18T14:25:16;23.83;;;11.65;;
42244;SDS011;27912;51.828;5.688;2022-12-18T14:27:49;23.60;;;12.98;;
42244;SDS011;27912;51.828;5.688;2022-12-18T14:30:26;26.77;;;12.68;;
42244;SDS011;27912;51.828;5.688;2022-12-18T14:33:01;25.38;;;12.30;;
42244;SDS011;27912;51.828;5.688;2022-12-18T14:35:38;23.55;;;12.20;;
42244;SDS011;27912;51.828;5.688;2022-12-18T14:38:20;27.57;;;12.33;;
42244;SDS011;27912;51.828;5.688;2022-12-18T14:41:00;26.88;;;13.10;;
42244;SDS011;27912;51.828;5.688;2022-12-18T14:43:28;26.48;;;12.65;;
42244;SDS011;27912;51.828;5.688;2022-12-18T14:45:56;27.52;;;13.40;;
42244;SDS011;27912;51.828;5.688;2022-12-18T14:53:36;27.27;;;13.18;;
42244;SDS011;27912;51.828;5.688;2022-12-18T14:56:27;27.83;;;13.48;;
42244;SDS011;27912;51.828;5.688;2022-12-18T14:58:54;25.38;;;12.45;;
42244;SDS011;27912;51.828;5.688;2022-12-18T15:03:54;24.27;;;11.63;;
42244;SDS011;27912;51.828;5.688;2022-12-18T15:06:27;25.65;;;12.63;;
42244;SDS011;27912;51.828;5.688;2022-12-18T15:08:53;29.27;;;12.13;;
42244;SDS011;27912;51.828;5.688;2022-12-18T15:11:26;25.25;;;12.65;;
42244;SDS011;27912;51.828;5.688;2022-12-18T15:17:05;28.90;;;13.38;;
42244;SDS011;27912;51.828;5.688;2022-12-18T15:19:43;25.90;;;12.80;;
42244;SDS011;27912;51.828;5.688;2022-12-18T15:22:17;26.42;;;12.90;;
42244;SDS011;27912;51.828;5.688;2022-12-18T15:24:45;23.13;;;12.27;;
42244;SDS011;27912;51.828;5.688;2022-12-18T15:32:44;29.75;;;13.70;;
42244;SDS011;27912;51.828;5.688;2022-12-18T15:37:36;27.50;;;13.80;;
42244;SDS011;27912;51.828;5.688;2022-12-18T15:40:03;27.90;;;13.80;;
42244;SDS011;27912;51.828;5.688;2022-12-18T15:42:29;29.67;;;13.52;;
42244;SDS011;27912;51.828;5.688;2022-12-18T15:45:13;31.10;;;13.45;;
42244;SDS011;27912;51.828;5.688;2022-12-18T15:47:39;27.67;;;13.13;;
42244;SDS011;27912;51.828;5.688;2022-12-18T15:50:07;30.02;;;14.25;;
42244;SDS011;27912;51.828;5.688;2022-12-18T15:52:34;29.40;;;14.10;;
42244;SDS011;27912;51.828;5.688;2022-12-18T15:55:05;29.58;;;13.90;;
42244;SDS011;27912;51.828;5.688;2022-12-18T15:57:58;26.85;;;13.63;;
42244;SDS011;27912;51.828;5.688;2022-12-18T16:00:23;28.70;;;14.13;;
42244;SDS011;27912;51.828;5.688;2022-12-18T16:02:50;28.52;;;14.05;;
42244;SDS011;27912;51.828;5.688;2022-12-18T16:05:16;33.60;;;15.45;;
42244;SDS011;27912;51.828;5.688;2022-12-18T16:07:43;30.30;;;15.02;;
42244;SDS011;27912;51.828;5.688;2022-12-18T16:10:09;31.55;;;14.68;;
42244;SDS011;27912;51.828;5.688;2022-12-18T16:12:36;32.67;;;14.98;;
42244;SDS011;27912;51.828;5.688;2022-12-18T16:15:02;30.70;;;15.05;;
42244;SDS011;27912;51.828;5.688;2022-12-18T16:17:29;30.38;;;13.18;;
42244;SDS011;27912;51.828;5.688;2022-12-18T16:19:54;33.25;;;15.50;;
42244;SDS011;27912;51.828;5.688;2022-12-18T16:22:24;30.00;;;15.70;;
42244;SDS011;27912;51.828;5.688;2022-12-18T16:24:52;33.90;;;16.58;;
42244;SDS011;27912;51.828;5.688;2022-12-18T16:27:18;33.30;;;16.48;;
42244;SDS011;27912;51.828;5.688;2022-12-18T16:29:44;30.90;;;15.65;;
42244;SDS011;27912;51.828;5.688;2022-12-18T16:32:17;29.63;;;14.70;;
42244;SDS011;27912;51.828;5.688;2022-12-18T16:34:44;28.42;;;14.60;;
42244;SDS011;27912;51.828;5.688;2022-12-18T16:37:11;31.27;;;15.32;;
42244;SDS011;27912;51.828;5.688;2022-12-18T16:39:38;34.75;;;16.77;;
42244;SDS011;27912;51.828;5.688;2022-12-18T16:42:17;31.13;;;15.55;;
42244;SDS011;27912;51.828;5.688;2022-12-18T16:44:44;33.53;;;15.52;;
42244;SDS011;27912;51.828;5.688;2022-12-18T16:47:11;30.10;;;15.45;;
42244;SDS011;27912;51.828;5.688;2022-12-18T16:49:37;28.60;;;14.75;;
42244;SDS011;27912;51.828;5.688;2022-12-18T16:52:03;34.10;;;15.98;;
42244;SDS011;27912;51.828;5.688;2022-12-18T16:54:30;32.90;;;16.65;;
42244;SDS011;27912;51.828;5.688;2022-12-18T16:56:57;33.28;;;16.30;;